sensor_id;sensor_type;location;lat;lon;timestamp;P1;durP1;ratioP1;P2;durP2;ratioP2
77524;SDS011;66638;50.050;21.124;2023-03-01T00:01:58;74.80;;;33.60;;
77524;SDS011;66638;50.050;21.124;2023-03-01T00:04:45;73.90;;;36.80;;
77524;SDS011;66638;50.050;21.124;2023-03-01T00:07:33;103.50;;;48.20;;
77524;SDS011;66638;50.050;21.124;2023-03-01T00:10:20;106.30;;;50.60;;
77524;SDS011;66638;50.050;21.124;2023-03-01T00:13:07;104.90;;;50.60;;
77524;SDS011;66638;50.050;21.124;2023-03-01T00:18:42;80.80;;;42.40;;
77524;SDS011;66638;50.050;21.124;2023-03-01T00:21:30;91.80;;;41.80;;
77524;SDS011;66638;50.050;21.124;2023-03-01T00:24:17;91.30;;;41.20;;
77524;SDS011;66638;50.050;21.124;2023-03-01T00:27:04;81.60;;;40.30;;
77524;SDS011;66638;50.050;21.124;2023-03-01T00:29:51;93.40;;;47.50;;
77524;SDS011;66638;50.050;21.124;2023-03-01T00:32:39;101.30;;;45.20;;
77524;SDS011;66638;50.050;21.124;2023-03-01T00:35:26;82.10;;;41.30;;
77524;SDS011;66638;50.050;21.124;2023-03-01T00:38:14;88.60;;;36.60;;
77524;SDS011;66638;50.050;21.124;2023-03-01T00:43:53;76.80;;;35.10;;
77524;SDS011;66638;50.050;21.124;2023-03-01T00:46:40;85.80;;;38.10;;
77524;SDS011;66638;50.050;21.124;2023-03-01T00:49:28;92.00;;;39.20;;
77524;SDS011;66638;50.050;21.124;2023-03-01T00:52:16;90.50;;;40.50;;
77524;SDS011;66638;50.050;21.124;2023-03-01T00:55:04;80.90;;;36.80;;
77524;SDS011;66638;50.050;21.124;2023-03-01T00:57:52;91.60;;;41.00;;
77524;SDS011;66638;50.050;21.124;2023-03-01T01:00:39;88.90;;;41.60;;
77524;SDS011;66638;50.050;21.124;2023-03-01T01:03:26;83.20;;;38.40;;
77524;SDS011;66638;50.050;21.124;2023-03-01T01:06:18;85.10;;;37.70;;
77524;SDS011;66638;50.050;21.124;2023-03-01T01:09:07;82.20;;;37.60;;
77524;SDS011;66638;50.050;21.124;2023-03-01T01:11:56;81.20;;;35.60;;
77524;SDS011;66638;50.050;21.124;2023-03-01T01:14:43;80.90;;;38.70;;
77524;SDS011;66638;50.050;21.124;2023-03-01T01:17:30;63.90;;;31.80;;
77524;SDS011;66638;50.050;21.124;2023-03-01T01:20:18;65.00;;;30.10;;
77524;SDS011;66638;50.050;21.124;2023-03-01T01:23:05;71.90;;;34.90;;
77524;SDS011;66638;50.050;21.124;2023-03-01T01:25:53;78.30;;;37.20;;
77524;SDS011;66638;50.050;21.124;2023-03-01T01:28:41;103.00;;;46.40;;
77524;SDS011;66638;50.050;21.124;2023-03-01T01:31:29;106.40;;;45.70;;
77524;SDS011;66638;50.050;21.124;2023-03-01T01:34:19;87.00;;;41.50;;
77524;SDS011;66638;50.050;21.124;2023-03-01T01:37:08;71.30;;;34.10;;
77524;SDS011;66638;50.050;21.124;2023-03-01T01:39:55;65.10;;;31.50;;
77524;SDS011;66638;50.050;21.124;2023-03-01T01:42:43;73.80;;;34.00;;
77524;SDS011;66638;50.050;21.124;2023-03-01T01:45:32;73.30;;;34.40;;
77524;SDS011;66638;50.050;21.124;2023-03-01T01:48:22;67.40;;;32.40;;
77524;SDS011;66638;50.050;21.124;2023-03-01T01:51:13;72.90;;;35.70;;
77524;SDS011;66638;50.050;21.124;2023-03-01T01:54:07;66.40;;;32.20;;
77524;SDS011;66638;50.050;21.124;2023-03-01T01:57:00;71.80;;;33.10;;
77524;SDS011;66638;50.050;21.124;2023-03-01T01:59:52;73.40;;;32.10;;
77524;SDS011;66638;50.050;21.124;2023-03-01T02:02:41;67.90;;;34.70;;
77524;SDS011;66638;50.050;21.124;2023-03-01T02:05:38;76.40;;;35.80;;
77524;SDS011;66638;50.050;21.124;2023-03-01T02:08:48;77.80;;;35.90;;
77524;SDS011;66638;50.050;21.124;2023-03-01T02:11:36;84.10;;;37.70;;
77524;SDS011;66638;50.050;21.124;2023-03-01T02:14:24;83.40;;;39.90;;
77524;SDS011;66638;50.050;21.124;2023-03-01T02:17:12;75.60;;;37.70;;
77524;SDS011;66638;50.050;21.124;2023-03-01T02:20:09;81.40;;;39.80;;
77524;SDS011;66638;50.050;21.124;2023-03-01T02:23:18;100.60;;;43.70;;
77524;SDS011;66638;50.050;21.124;2023-03-01T02:29:19;111.70;;;50.30;;
77524;SDS011;66638;50.050;21.124;2023-03-01T02:32:07;127.50;;;58.60;;
77524;SDS011;66638;50.050;21.124;2023-03-01T02:34:55;128.10;;;60.80;;
77524;SDS011;66638;50.050;21.124;2023-03-01T02:37:43;111.90;;;57.20;;
77524;SDS011;66638;50.050;21.124;2023-03-01T02:40:31;105.80;;;53.70;;
77524;SDS011;66638;50.050;21.124;2023-03-01T02:43:21;100.00;;;49.00;;
77524;SDS011;66638;50.050;21.124;2023-03-01T02:46:15;109.00;;;48.60;;
77524;SDS011;66638;50.050;21.124;2023-03-01T02:52:21;73.40;;;33.70;;
77524;SDS011;66638;50.050;21.124;2023-03-01T02:55:30;95.70;;;43.40;;
77524;SDS011;66638;50.050;21.124;2023-03-01T02:58:18;95.50;;;45.10;;
77524;SDS011;66638;50.050;21.124;2023-03-01T03:01:06;98.90;;;47.60;;
77524;SDS011;66638;50.050;21.124;2023-03-01T03:03:56;97.70;;;43.80;;
77524;SDS011;66638;50.050;21.124;2023-03-01T03:06:44;101.80;;;48.90;;
77524;SDS011;66638;50.050;21.124;2023-03-01T03:09:32;104.10;;;48.00;;
77524;SDS011;66638;50.050;21.124;2023-03-01T03:12:19;100.50;;;47.90;;
77524;SDS011;66638;50.050;21.124;2023-03-01T03:15:08;100.30;;;47.60;;
77524;SDS011;66638;50.050;21.124;2023-03-01T03:17:56;101.80;;;46.10;;
77524;SDS011;66638;50.050;21.124;2023-03-01T03:20:45;110.20;;;53.40;;
77524;SDS011;66638;50.050;21.124;2023-03-01T03:23:33;93.60;;;41.80;;
77524;SDS011;66638;50.050;21.124;2023-03-01T03:26:20;103.70;;;49.70;;
77524;SDS011;66638;50.050;21.124;2023-03-01T03:29:08;101.00;;;46.80;;
77524;SDS011;66638;50.050;21.124;2023-03-01T03:31:55;114.20;;;49.40;;
77524;SDS011;66638;50.050;21.124;2023-03-01T03:34:42;127.20;;;58.30;;
77524;SDS011;66638;50.050;21.124;2023-03-01T03:37:30;141.00;;;63.00;;
77524;SDS011;66638;50.050;21.124;2023-03-01T03:40:38;141.00;;;62.40;;
77524;SDS011;66638;50.050;21.124;2023-03-01T03:43:26;128.90;;;62.90;;
77524;SDS011;66638;50.050;21.124;2023-03-01T03:46:14;116.50;;;56.30;;
77524;SDS011;66638;50.050;21.124;2023-03-01T03:49:02;105.50;;;49.30;;
77524;SDS011;66638;50.050;21.124;2023-03-01T03:51:49;97.80;;;46.10;;
77524;SDS011;66638;50.050;21.124;2023-03-01T03:54:37;101.00;;;44.60;;
77524;SDS011;66638;50.050;21.124;2023-03-01T03:57:24;105.60;;;45.80;;
77524;SDS011;66638;50.050;21.124;2023-03-01T04:00:11;105.30;;;48.20;;
77524;SDS011;66638;50.050;21.124;2023-03-01T04:03:00;100.00;;;47.20;;
77524;SDS011;66638;50.050;21.124;2023-03-01T04:05:47;92.30;;;44.10;;
77524;SDS011;66638;50.050;21.124;2023-03-01T04:08:37;100.10;;;48.60;;
77524;SDS011;66638;50.050;21.124;2023-03-01T04:11:24;97.70;;;45.30;;
77524;SDS011;66638;50.050;21.124;2023-03-01T04:14:15;90.80;;;43.00;;
77524;SDS011;66638;50.050;21.124;2023-03-01T04:17:02;98.00;;;44.50;;
77524;SDS011;66638;50.050;21.124;2023-03-01T04:19:52;97.50;;;49.10;;
77524;SDS011;66638;50.050;21.124;2023-03-01T04:22:39;98.90;;;47.00;;
77524;SDS011;66638;50.050;21.124;2023-03-01T04:25:27;108.60;;;48.40;;
77524;SDS011;66638;50.050;21.124;2023-03-01T04:28:15;132.80;;;63.60;;
77524;SDS011;66638;50.050;21.124;2023-03-01T04:31:05;148.50;;;64.80;;
77524;SDS011;66638;50.050;21.124;2023-03-01T04:33:59;148.00;;;70.00;;
77524;SDS011;66638;50.050;21.124;2023-03-01T04:36:46;136.40;;;63.40;;
77524;SDS011;66638;50.050;21.124;2023-03-01T04:39:34;116.70;;;56.40;;
77524;SDS011;66638;50.050;21.124;2023-03-01T04:42:32;116.60;;;56.80;;
77524;SDS011;66638;50.050;21.124;2023-03-01T04:45:19;110.70;;;58.00;;
77524;SDS011;66638;50.050;21.124;2023-03-01T04:48:07;112.90;;;57.70;;
77524;SDS011;66638;50.050;21.124;2023-03-01T04:50:55;103.30;;;48.40;;
77524;SDS011;66638;50.050;21.124;2023-03-01T04:53:43;104.60;;;50.00;;
77524;SDS011;66638;50.050;21.124;2023-03-01T04:56:30;102.30;;;47.20;;
77524;SDS011;66638;50.050;21.124;2023-03-01T04:59:17;99.50;;;46.30;;
77524;SDS011;66638;50.050;21.124;2023-03-01T05:02:09;111.30;;;46.30;;
77524;SDS011;66638;50.050;21.124;2023-03-01T05:04:56;93.10;;;44.60;;
77524;SDS011;66638;50.050;21.124;2023-03-01T05:07:44;87.70;;;42.70;;
77524;SDS011;66638;50.050;21.124;2023-03-01T05:10:32;90.40;;;41.50;;
77524;SDS011;66638;50.050;21.124;2023-03-01T05:13:22;93.30;;;42.30;;
77524;SDS011;66638;50.050;21.124;2023-03-01T05:16:09;102.20;;;47.90;;
77524;SDS011;66638;50.050;21.124;2023-03-01T05:18:58;90.80;;;42.70;;
77524;SDS011;66638;50.050;21.124;2023-03-01T05:21:45;97.80;;;42.90;;
77524;SDS011;66638;50.050;21.124;2023-03-01T05:24:53;99.00;;;40.50;;
77524;SDS011;66638;50.050;21.124;2023-03-01T05:27:41;91.50;;;42.60;;
77524;SDS011;66638;50.050;21.124;2023-03-01T05:30:28;76.50;;;36.70;;
77524;SDS011;66638;50.050;21.124;2023-03-01T05:33:16;122.70;;;58.00;;
77524;SDS011;66638;50.050;21.124;2023-03-01T05:36:04;139.50;;;64.30;;
77524;SDS011;66638;50.050;21.124;2023-03-01T05:38:54;113.30;;;57.10;;
77524;SDS011;66638;50.050;21.124;2023-03-01T05:41:42;98.80;;;47.80;;
77524;SDS011;66638;50.050;21.124;2023-03-01T05:44:30;93.90;;;44.70;;
77524;SDS011;66638;50.050;21.124;2023-03-01T05:47:17;92.40;;;43.60;;
77524;SDS011;66638;50.050;21.124;2023-03-01T05:50:05;84.60;;;40.20;;
77524;SDS011;66638;50.050;21.124;2023-03-01T05:52:58;86.80;;;44.00;;
77524;SDS011;66638;50.050;21.124;2023-03-01T05:55:54;96.00;;;45.20;;
77524;SDS011;66638;50.050;21.124;2023-03-01T05:58:42;92.90;;;44.40;;
77524;SDS011;66638;50.050;21.124;2023-03-01T06:01:29;92.50;;;46.10;;
77524;SDS011;66638;50.050;21.124;2023-03-01T06:04:16;89.60;;;44.40;;
77524;SDS011;66638;50.050;21.124;2023-03-01T06:07:04;96.50;;;46.70;;
77524;SDS011;66638;50.050;21.124;2023-03-01T06:09:51;95.10;;;46.50;;
77524;SDS011;66638;50.050;21.124;2023-03-01T06:12:39;94.70;;;44.90;;
77524;SDS011;66638;50.050;21.124;2023-03-01T06:15:27;100.40;;;51.10;;
77524;SDS011;66638;50.050;21.124;2023-03-01T06:18:15;99.80;;;54.70;;
77524;SDS011;66638;50.050;21.124;2023-03-01T06:21:02;103.40;;;54.00;;
77524;SDS011;66638;50.050;21.124;2023-03-01T06:23:50;101.40;;;54.70;;
77524;SDS011;66638;50.050;21.124;2023-03-01T06:26:38;108.80;;;58.00;;
77524;SDS011;66638;50.050;21.124;2023-03-01T06:29:25;98.50;;;55.90;;
77524;SDS011;66638;50.050;21.124;2023-03-01T06:32:13;101.40;;;51.50;;
77524;SDS011;66638;50.050;21.124;2023-03-01T06:35:00;93.70;;;53.10;;
77524;SDS011;66638;50.050;21.124;2023-03-01T06:37:47;95.00;;;52.90;;
77524;SDS011;66638;50.050;21.124;2023-03-01T06:40:35;94.70;;;54.30;;
77524;SDS011;66638;50.050;21.124;2023-03-01T06:43:23;90.60;;;50.90;;
77524;SDS011;66638;50.050;21.124;2023-03-01T06:46:10;104.00;;;56.80;;
77524;SDS011;66638;50.050;21.124;2023-03-01T06:48:57;91.30;;;52.80;;
77524;SDS011;66638;50.050;21.124;2023-03-01T06:51:45;95.70;;;54.30;;
77524;SDS011;66638;50.050;21.124;2023-03-01T06:54:32;100.70;;;55.60;;
77524;SDS011;66638;50.050;21.124;2023-03-01T06:57:20;92.50;;;53.50;;
77524;SDS011;66638;50.050;21.124;2023-03-01T07:00:07;97.70;;;55.70;;
77524;SDS011;66638;50.050;21.124;2023-03-01T07:02:57;110.80;;;64.10;;
77524;SDS011;66638;50.050;21.124;2023-03-01T07:05:48;102.00;;;57.00;;
77524;SDS011;66638;50.050;21.124;2023-03-01T07:08:38;96.90;;;56.50;;
77524;SDS011;66638;50.050;21.124;2023-03-01T07:11:26;105.80;;;58.00;;
77524;SDS011;66638;50.050;21.124;2023-03-01T07:14:13;97.30;;;60.90;;
77524;SDS011;66638;50.050;21.124;2023-03-01T07:17:00;101.50;;;60.30;;
77524;SDS011;66638;50.050;21.124;2023-03-01T07:19:48;101.10;;;63.00;;
77524;SDS011;66638;50.050;21.124;2023-03-01T07:22:35;97.20;;;64.10;;
77524;SDS011;66638;50.050;21.124;2023-03-01T07:25:23;100.50;;;64.90;;
77524;SDS011;66638;50.050;21.124;2023-03-01T07:28:10;110.60;;;69.60;;
77524;SDS011;66638;50.050;21.124;2023-03-01T07:31:04;120.80;;;76.50;;
77524;SDS011;66638;50.050;21.124;2023-03-01T07:33:52;115.20;;;79.50;;
77524;SDS011;66638;50.050;21.124;2023-03-01T07:36:39;118.90;;;75.10;;
77524;SDS011;66638;50.050;21.124;2023-03-01T07:39:30;115.10;;;78.40;;
77524;SDS011;66638;50.050;21.124;2023-03-01T07:42:17;108.80;;;74.20;;
77524;SDS011;66638;50.050;21.124;2023-03-01T07:45:04;113.90;;;76.80;;
77524;SDS011;66638;50.050;21.124;2023-03-01T07:47:53;99.30;;;70.30;;
77524;SDS011;66638;50.050;21.124;2023-03-01T07:50:41;99.40;;;72.20;;
77524;SDS011;66638;50.050;21.124;2023-03-01T07:53:28;106.40;;;73.90;;
77524;SDS011;66638;50.050;21.124;2023-03-01T07:56:17;108.70;;;73.30;;
77524;SDS011;66638;50.050;21.124;2023-03-01T07:59:06;98.90;;;69.40;;
77524;SDS011;66638;50.050;21.124;2023-03-01T08:01:54;88.80;;;66.00;;
77524;SDS011;66638;50.050;21.124;2023-03-01T08:04:42;83.00;;;63.30;;
77524;SDS011;66638;50.050;21.124;2023-03-01T08:07:30;81.00;;;63.50;;
77524;SDS011;66638;50.050;21.124;2023-03-01T08:10:17;80.60;;;60.70;;
77524;SDS011;66638;50.050;21.124;2023-03-01T08:13:04;91.50;;;61.30;;
77524;SDS011;66638;50.050;21.124;2023-03-01T08:15:52;76.30;;;61.70;;
77524;SDS011;66638;50.050;21.124;2023-03-01T08:18:39;86.40;;;55.30;;
77524;SDS011;66638;50.050;21.124;2023-03-01T08:21:27;68.80;;;49.40;;
77524;SDS011;66638;50.050;21.124;2023-03-01T08:24:15;55.00;;;46.60;;
77524;SDS011;66638;50.050;21.124;2023-03-01T08:27:02;69.90;;;54.30;;
77524;SDS011;66638;50.050;21.124;2023-03-01T08:29:50;56.60;;;46.30;;
77524;SDS011;66638;50.050;21.124;2023-03-01T08:32:38;59.90;;;44.60;;
77524;SDS011;66638;50.050;21.124;2023-03-01T08:35:26;57.80;;;50.60;;
77524;SDS011;66638;50.050;21.124;2023-03-01T08:38:14;53.30;;;41.80;;
77524;SDS011;66638;50.050;21.124;2023-03-01T08:41:02;52.30;;;40.30;;
77524;SDS011;66638;50.050;21.124;2023-03-01T08:43:50;54.80;;;48.70;;
77524;SDS011;66638;50.050;21.124;2023-03-01T08:46:40;52.60;;;45.70;;
77524;SDS011;66638;50.050;21.124;2023-03-01T08:49:28;46.80;;;39.00;;
77524;SDS011;66638;50.050;21.124;2023-03-01T08:52:15;44.60;;;39.20;;
77524;SDS011;66638;50.050;21.124;2023-03-01T08:55:03;43.30;;;38.20;;
77524;SDS011;66638;50.050;21.124;2023-03-01T08:57:51;38.80;;;34.60;;
77524;SDS011;66638;50.050;21.124;2023-03-01T09:00:38;38.80;;;34.80;;
77524;SDS011;66638;50.050;21.124;2023-03-01T09:03:26;44.30;;;38.40;;
77524;SDS011;66638;50.050;21.124;2023-03-01T09:06:14;40.10;;;35.90;;
77524;SDS011;66638;50.050;21.124;2023-03-01T09:09:03;39.20;;;35.00;;
77524;SDS011;66638;50.050;21.124;2023-03-01T09:11:51;37.90;;;33.30;;
77524;SDS011;66638;50.050;21.124;2023-03-01T09:14:39;47.90;;;42.90;;
77524;SDS011;66638;50.050;21.124;2023-03-01T09:17:27;50.10;;;44.80;;
77524;SDS011;66638;50.050;21.124;2023-03-01T09:20:14;49.30;;;44.30;;
77524;SDS011;66638;50.050;21.124;2023-03-01T09:23:03;49.00;;;44.00;;
77524;SDS011;66638;50.050;21.124;2023-03-01T09:25:50;48.30;;;43.30;;
77524;SDS011;66638;50.050;21.124;2023-03-01T09:28:37;43.60;;;39.30;;
77524;SDS011;66638;50.050;21.124;2023-03-01T09:31:25;40.60;;;36.60;;
77524;SDS011;66638;50.050;21.124;2023-03-01T09:34:13;34.20;;;30.70;;
77524;SDS011;66638;50.050;21.124;2023-03-01T09:37:09;27.00;;;22.50;;
77524;SDS011;66638;50.050;21.124;2023-03-01T09:39:56;65.60;;;33.50;;
77524;SDS011;66638;50.050;21.124;2023-03-01T09:42:54;30.60;;;27.50;;
77524;SDS011;66638;50.050;21.124;2023-03-01T09:45:47;30.00;;;26.90;;
77524;SDS011;66638;50.050;21.124;2023-03-01T09:48:38;21.10;;;18.90;;
77524;SDS011;66638;50.050;21.124;2023-03-01T09:51:30;21.20;;;19.10;;
77524;SDS011;66638;50.050;21.124;2023-03-01T09:54:20;44.80;;;23.10;;
77524;SDS011;66638;50.050;21.124;2023-03-01T09:57:15;26.80;;;23.30;;
77524;SDS011;66638;50.050;21.124;2023-03-01T10:00:11;40.60;;;27.60;;
77524;SDS011;66638;50.050;21.124;2023-03-01T10:03:14;28.80;;;26.10;;
77524;SDS011;66638;50.050;21.124;2023-03-01T10:06:15;64.30;;;33.80;;
77524;SDS011;66638;50.050;21.124;2023-03-01T10:09:16;31.40;;;26.80;;
77524;SDS011;66638;50.050;21.124;2023-03-01T10:12:04;49.40;;;30.40;;
77524;SDS011;66638;50.050;21.124;2023-03-01T10:14:59;30.20;;;27.10;;
77524;SDS011;66638;50.050;21.124;2023-03-01T10:20:56;30.00;;;27.10;;
77524;SDS011;66638;50.050;21.124;2023-03-01T10:23:52;28.70;;;25.80;;
77524;SDS011;66638;50.050;21.124;2023-03-01T10:26:44;27.00;;;24.40;;
77524;SDS011;66638;50.050;21.124;2023-03-01T10:29:46;25.80;;;23.10;;
77524;SDS011;66638;50.050;21.124;2023-03-01T10:32:40;36.60;;;26.60;;
77524;SDS011;66638;50.050;21.124;2023-03-01T10:35:29;27.70;;;24.80;;
77524;SDS011;66638;50.050;21.124;2023-03-01T10:41:10;26.80;;;24.10;;
77524;SDS011;66638;50.050;21.124;2023-03-01T10:43:58;26.50;;;23.80;;
77524;SDS011;66638;50.050;21.124;2023-03-01T10:46:48;28.10;;;25.40;;
77524;SDS011;66638;50.050;21.124;2023-03-01T10:56:23;26.00;;;23.20;;
77524;SDS011;66638;50.050;21.124;2023-03-01T10:59:19;25.80;;;23.10;;
77524;SDS011;66638;50.050;21.124;2023-03-01T11:02:17;24.70;;;22.30;;
77524;SDS011;66638;50.050;21.124;2023-03-01T11:05:19;24.10;;;21.80;;
77524;SDS011;66638;50.050;21.124;2023-03-01T11:08:10;24.00;;;21.40;;
77524;SDS011;66638;50.050;21.124;2023-03-01T11:14:14;22.90;;;20.50;;
77524;SDS011;66638;50.050;21.124;2023-03-01T11:17:04;22.00;;;19.70;;
77524;SDS011;66638;50.050;21.124;2023-03-01T11:20:23;25.40;;;22.70;;
77524;SDS011;66638;50.050;21.124;2023-03-01T11:23:14;24.50;;;22.10;;
77524;SDS011;66638;50.050;21.124;2023-03-01T11:26:03;25.20;;;22.00;;
77524;SDS011;66638;50.050;21.124;2023-03-01T11:28:54;32.70;;;21.90;;
77524;SDS011;66638;50.050;21.124;2023-03-01T11:31:44;23.90;;;21.40;;
77524;SDS011;66638;50.050;21.124;2023-03-01T11:44:02;24.60;;;22.00;;
77524;SDS011;66638;50.050;21.124;2023-03-01T11:46:55;21.50;;;19.40;;
77524;SDS011;66638;50.050;21.124;2023-03-01T11:50:00;21.20;;;18.90;;
77524;SDS011;66638;50.050;21.124;2023-03-01T11:53:04;22.70;;;20.00;;
77524;SDS011;66638;50.050;21.124;2023-03-01T11:56:21;24.50;;;22.00;;
77524;SDS011;66638;50.050;21.124;2023-03-01T12:02:32;25.10;;;22.50;;
77524;SDS011;66638;50.050;21.124;2023-03-01T12:05:43;24.80;;;22.20;;
77524;SDS011;66638;50.050;21.124;2023-03-01T12:12:23;26.30;;;23.70;;
77524;SDS011;66638;50.050;21.124;2023-03-01T12:15:34;25.90;;;22.90;;
77524;SDS011;66638;50.050;21.124;2023-03-01T12:32:15;26.60;;;23.00;;
77524;SDS011;66638;50.050;21.124;2023-03-01T12:35:31;26.00;;;22.00;;
77524;SDS011;66638;50.050;21.124;2023-03-01T12:41:50;27.00;;;23.20;;
77524;SDS011;66638;50.050;21.124;2023-03-01T12:51:22;27.40;;;19.60;;
77524;SDS011;66638;50.050;21.124;2023-03-01T12:54:14;23.60;;;19.40;;
77524;SDS011;66638;50.050;21.124;2023-03-01T13:00:24;25.90;;;20.10;;
77524;SDS011;66638;50.050;21.124;2023-03-01T13:03:30;20.20;;;17.00;;
77524;SDS011;66638;50.050;21.124;2023-03-01T13:13:20;18.50;;;15.20;;
77524;SDS011;66638;50.050;21.124;2023-03-01T13:19:35;21.50;;;16.90;;
77524;SDS011;66638;50.050;21.124;2023-03-01T13:22:27;23.70;;;17.20;;
77524;SDS011;66638;50.050;21.124;2023-03-01T13:25:18;22.60;;;16.70;;
77524;SDS011;66638;50.050;21.124;2023-03-01T13:34:42;19.60;;;13.70;;
77524;SDS011;66638;50.050;21.124;2023-03-01T13:37:32;19.50;;;14.30;;
77524;SDS011;66638;50.050;21.124;2023-03-01T13:43:53;23.80;;;14.50;;
77524;SDS011;66638;50.050;21.124;2023-03-01T13:46:40;22.20;;;15.10;;
77524;SDS011;66638;50.050;21.124;2023-03-01T13:55:58;25.60;;;17.00;;
77524;SDS011;66638;50.050;21.124;2023-03-01T13:58:54;22.20;;;14.10;;
77524;SDS011;66638;50.050;21.124;2023-03-01T14:01:53;18.50;;;12.30;;
77524;SDS011;66638;50.050;21.124;2023-03-01T14:04:42;19.90;;;12.70;;
77524;SDS011;66638;50.050;21.124;2023-03-01T14:07:31;20.20;;;11.90;;
77524;SDS011;66638;50.050;21.124;2023-03-01T14:10:18;21.00;;;12.70;;
77524;SDS011;66638;50.050;21.124;2023-03-01T14:19:29;18.10;;;12.20;;
77524;SDS011;66638;50.050;21.124;2023-03-01T14:22:24;18.40;;;13.00;;
77524;SDS011;66638;50.050;21.124;2023-03-01T14:25:27;19.80;;;11.80;;
77524;SDS011;66638;50.050;21.124;2023-03-01T14:28:23;23.20;;;16.70;;
77524;SDS011;66638;50.050;21.124;2023-03-01T14:34:26;18.30;;;12.50;;
77524;SDS011;66638;50.050;21.124;2023-03-01T14:40:23;19.60;;;13.60;;
77524;SDS011;66638;50.050;21.124;2023-03-01T14:43:16;19.30;;;13.30;;
77524;SDS011;66638;50.050;21.124;2023-03-01T14:46:16;19.20;;;11.90;;
77524;SDS011;66638;50.050;21.124;2023-03-01T14:49:17;20.30;;;13.60;;
77524;SDS011;66638;50.050;21.124;2023-03-01T14:52:16;18.70;;;12.90;;
77524;SDS011;66638;50.050;21.124;2023-03-01T14:57:54;18.60;;;11.50;;
77524;SDS011;66638;50.050;21.124;2023-03-01T15:00:48;20.10;;;12.00;;
77524;SDS011;66638;50.050;21.124;2023-03-01T15:03:42;21.50;;;12.30;;
77524;SDS011;66638;50.050;21.124;2023-03-01T15:06:44;21.90;;;13.20;;
77524;SDS011;66638;50.050;21.124;2023-03-01T15:09:37;19.50;;;12.50;;
77524;SDS011;66638;50.050;21.124;2023-03-01T15:12:35;23.10;;;12.90;;
77524;SDS011;66638;50.050;21.124;2023-03-01T15:15:34;21.00;;;11.60;;
77524;SDS011;66638;50.050;21.124;2023-03-01T15:18:27;20.00;;;12.60;;
77524;SDS011;66638;50.050;21.124;2023-03-01T15:21:20;17.40;;;10.70;;
77524;SDS011;66638;50.050;21.124;2023-03-01T15:24:17;19.60;;;12.90;;
77524;SDS011;66638;50.050;21.124;2023-03-01T15:27:17;24.30;;;13.10;;
77524;SDS011;66638;50.050;21.124;2023-03-01T15:30:06;18.70;;;11.10;;
77524;SDS011;66638;50.050;21.124;2023-03-01T15:42:43;17.80;;;10.20;;
77524;SDS011;66638;50.050;21.124;2023-03-01T15:48:18;18.50;;;9.70;;
77524;SDS011;66638;50.050;21.124;2023-03-01T15:51:09;18.10;;;10.00;;
77524;SDS011;66638;50.050;21.124;2023-03-01T15:54:06;15.70;;;10.40;;
77524;SDS011;66638;50.050;21.124;2023-03-01T15:56:59;16.30;;;9.60;;
77524;SDS011;66638;50.050;21.124;2023-03-01T15:59:46;17.10;;;10.40;;
77524;SDS011;66638;50.050;21.124;2023-03-01T16:02:34;19.40;;;10.20;;
77524;SDS011;66638;50.050;21.124;2023-03-01T16:05:23;17.60;;;10.30;;
77524;SDS011;66638;50.050;21.124;2023-03-01T16:08:15;17.50;;;10.20;;
77524;SDS011;66638;50.050;21.124;2023-03-01T16:11:04;22.20;;;8.90;;
77524;SDS011;66638;50.050;21.124;2023-03-01T16:13:55;19.20;;;9.00;;
77524;SDS011;66638;50.050;21.124;2023-03-01T16:16:42;18.90;;;10.00;;
77524;SDS011;66638;50.050;21.124;2023-03-01T16:19:32;18.60;;;10.20;;
77524;SDS011;66638;50.050;21.124;2023-03-01T16:22:19;19.30;;;10.80;;
77524;SDS011;66638;50.050;21.124;2023-03-01T16:25:12;17.90;;;10.10;;
77524;SDS011;66638;50.050;21.124;2023-03-01T16:28:01;18.30;;;10.00;;
77524;SDS011;66638;50.050;21.124;2023-03-01T16:30:51;24.50;;;12.10;;
77524;SDS011;66638;50.050;21.124;2023-03-01T16:33:39;22.40;;;11.10;;
77524;SDS011;66638;50.050;21.124;2023-03-01T16:36:36;18.70;;;11.20;;
77524;SDS011;66638;50.050;21.124;2023-03-01T16:39:23;20.80;;;11.70;;
77524;SDS011;66638;50.050;21.124;2023-03-01T16:42:11;36.80;;;17.20;;
77524;SDS011;66638;50.050;21.124;2023-03-01T16:44:58;68.30;;;27.60;;
77524;SDS011;66638;50.050;21.124;2023-03-01T16:47:45;55.20;;;21.80;;
77524;SDS011;66638;50.050;21.124;2023-03-01T16:50:38;68.70;;;28.90;;
77524;SDS011;66638;50.050;21.124;2023-03-01T16:53:29;79.50;;;32.20;;
77524;SDS011;66638;50.050;21.124;2023-03-01T16:56:17;97.30;;;37.10;;
77524;SDS011;66638;50.050;21.124;2023-03-01T16:59:07;65.00;;;26.70;;
77524;SDS011;66638;50.050;21.124;2023-03-01T17:01:54;54.90;;;24.40;;
77524;SDS011;66638;50.050;21.124;2023-03-01T17:04:42;39.80;;;18.80;;
77524;SDS011;66638;50.050;21.124;2023-03-01T17:07:31;67.50;;;30.50;;
77524;SDS011;66638;50.050;21.124;2023-03-01T17:10:20;53.40;;;24.60;;
77524;SDS011;66638;50.050;21.124;2023-03-01T17:13:09;64.10;;;26.10;;
77524;SDS011;66638;50.050;21.124;2023-03-01T17:15:57;56.60;;;24.70;;
77524;SDS011;66638;50.050;21.124;2023-03-01T17:18:47;68.70;;;28.90;;
77524;SDS011;66638;50.050;21.124;2023-03-01T17:21:38;95.50;;;43.80;;
77524;SDS011;66638;50.050;21.124;2023-03-01T17:24:27;98.60;;;46.10;;
77524;SDS011;66638;50.050;21.124;2023-03-01T17:27:16;84.50;;;35.30;;
77524;SDS011;66638;50.050;21.124;2023-03-01T17:30:05;66.90;;;31.40;;
77524;SDS011;66638;50.050;21.124;2023-03-01T17:32:54;79.70;;;37.10;;
77524;SDS011;66638;50.050;21.124;2023-03-01T17:35:44;92.70;;;44.10;;
77524;SDS011;66638;50.050;21.124;2023-03-01T17:38:33;89.80;;;39.40;;
77524;SDS011;66638;50.050;21.124;2023-03-01T17:41:23;92.90;;;39.70;;
77524;SDS011;66638;50.050;21.124;2023-03-01T17:44:11;100.80;;;44.70;;
77524;SDS011;66638;50.050;21.124;2023-03-01T17:46:59;68.00;;;32.20;;
77524;SDS011;66638;50.050;21.124;2023-03-01T17:49:48;117.20;;;53.10;;
77524;SDS011;66638;50.050;21.124;2023-03-01T17:52:39;118.30;;;54.50;;
77524;SDS011;66638;50.050;21.124;2023-03-01T17:55:27;97.80;;;42.70;;
77524;SDS011;66638;50.050;21.124;2023-03-01T17:58:15;93.00;;;43.40;;
77524;SDS011;66638;50.050;21.124;2023-03-01T18:01:09;104.80;;;47.00;;
77524;SDS011;66638;50.050;21.124;2023-03-01T18:03:59;94.50;;;40.80;;
77524;SDS011;66638;50.050;21.124;2023-03-01T18:06:49;102.60;;;46.20;;
77524;SDS011;66638;50.050;21.124;2023-03-01T18:09:36;95.30;;;43.10;;
77524;SDS011;66638;50.050;21.124;2023-03-01T18:12:26;81.10;;;36.00;;
77524;SDS011;66638;50.050;21.124;2023-03-01T18:15:14;81.20;;;35.30;;
77524;SDS011;66638;50.050;21.124;2023-03-01T18:18:01;78.20;;;34.60;;
77524;SDS011;66638;50.050;21.124;2023-03-01T18:20:54;75.10;;;33.50;;
77524;SDS011;66638;50.050;21.124;2023-03-01T18:23:43;78.90;;;36.50;;
77524;SDS011;66638;50.050;21.124;2023-03-01T18:26:31;82.60;;;39.90;;